< Cyclone 197308 1973 Season Cyclone 197310 >
Cyclone 197309 (MADGE)
General InformationTrack Information on Google Maps || ResourceGoogle EarthGE AnimationAtom FeedGeoJSON
Detalied Best Track (Time Zone = UTC)
Year Month Day Hour Lat. Long. Pressure (hPa) Wind (kt) Class Image Chart
1973 2 28 17 -8.0 160.8 1003 0 0 -- --
1973 2 28 20 -8.1 160.4 1003 0 0 -- --
1973 2 28 23 -8.3 159.9 1003 0 0 -- --
1973 3 1 08 -9.2 158.6 1000 0 0 -- --
1973 3 1 11 -9.4 157.8 1001 0 0 -- --
1973 3 1 20 -9.6 155.5 999 0 0 -- --
1973 3 1 23 -9.9 155.0 1000 0 0 -- --
1973 3 2 11 -11.8 153.2 1000 0 0 -- --
1973 3 2 17 -12.5 152.1 1001 0 0 -- --
1973 3 2 23 -12.9 150.9 1002 0 0 -- --
1973 3 3 11 -13.7 148.5 1001 0 0 -- --
1973 3 3 23 -14.5 146.1 998 0 0 -- --
1973 3 4 11 -14.8 142.6 998 0 0 -- --
1973 3 4 14 -14.8 141.6 996 0 0 -- --
1973 3 4 23 -14.8 139.4 988 0 0 -- --
1973 3 5 06 -14.7 138.2 985 0 0 -- --
1973 3 5 09 -14.4 137.6 985 0 0 -- --
1973 3 5 12 -14.2 137.2 985 0 0 -- --
1973 3 5 15 -14.0 136.1 985 0 0 -- --
1973 3 5 18 -13.8 136.0 985 0 0 -- --
1973 3 5 21 -13.6 135.6 990 0 0 -- --
1973 3 6 00 -13.5 135.1 998 0 0 -- --
1973 3 7 10 -14.7 129.7 999 0 0 -- --
1973 3 7 13 -15.0 128.8 999 0 0 -- --
1973 3 7 16 -15.2 128.4 999 0 0 -- --
1973 3 7 19 -15.2 127.9 997 0 0 -- --
1973 3 7 22 -15.3 127.6 999 0 0 -- --
1973 3 8 01 -15.3 127.4 1000 0 0 -- --
1973 3 8 04 -15.4 126.8 999 0 0 -- --
1973 3 8 07 -15.5 126.5 997 0 0 -- --
1973 3 8 10 -15.9 126.2 998 0 0 -- --
1973 3 8 13 -16.0 126.0 998 0 0 -- --
1973 3 8 16 -16.3 125.7 999 0 0 -- --
1973 3 8 19 -16.5 125.5 999 0 0 -- --
1973 3 8 22 -16.7 125.3 1000 0 0 -- --
1973 3 9 01 -16.9 125.1 1000 0 0 -- --
1973 3 9 04 -17.0 124.9 998 0 0 -- --
1973 3 9 06 -17.1 124.5 997 0 0 -- --
1973 3 9 07 -17.1 124.5 996 0 0 -- --
1973 3 9 10 -17.1 124.2 995 0 0 -- --
1973 3 9 13 -17.0 123.9 995 0 0 -- --
1973 3 9 14 -16.9 123.7 995 0 0 -- --
1973 3 9 16 -16.9 123.5 995 0 0 -- --
1973 3 9 17 -16.9 123.3 994 0 0 -- --
1973 3 9 19 -16.8 123.0 993 0 0 -- --
1973 3 9 22 -16.8 122.5 990 0 0 -- --
1973 3 10 01 -16.9 122.3 992 0 0 -- --
1973 3 10 04 -17.0 122.0 990 0 0 -- --
1973 3 10 07 -17.2 121.2 988 0 0 -- --
1973 3 10 10 -17.4 120.5 986 0 0 -- --
1973 3 10 13 -17.7 120.2 984 0 0 -- --
1973 3 10 16 -17.9 119.6 981 0 0 -- --
1973 3 10 19 -17.9 119.0 978 0 0 -- --
1973 3 10 20 -17.9 119.0 977 0 0 -- --
1973 3 10 22 -17.8 118.6 976 0 0 -- --
1973 3 11 01 -17.8 118.0 973 0 0 -- --
1973 3 11 04 -18.0 117.4 971 0 0 -- --
1973 3 11 07 -18.2 116.7 968 0 0 -- --
1973 3 11 10 -18.4 116.2 965 0 0 -- --
1973 3 11 13 -18.5 115.1 961 0 0 -- --
1973 3 11 16 -18.6 114.4 958 0 0 -- --
1973 3 11 19 -18.6 113.5 956 0 0 -- --
1973 3 11 22 -18.7 112.7 955 0 0 -- --
1973 3 12 01 -18.7 112.0 954 0 0 -- --
1973 3 12 04 -18.7 111.2 953 0 0 -- --
1973 3 12 07 -18.7 110.3 952 0 0 -- --
1973 3 12 10 -18.7 109.5 953 0 0 -- --
1973 3 12 13 -18.7 109.1 953 0 0 -- --
1973 3 12 16 -18.8 108.3 953 0 0 -- --
1973 3 12 19 -18.7 107.6 952 0 0 -- --
1973 3 12 22 -18.7 106.8 953 0 0 -- --
1973 3 13 01 -18.8 106.1 954 0 0 -- --
1973 3 13 04 -19.2 105.4 955 0 0 -- --
1973 3 13 07 -19.4 105.1 955 0 0 -- --
1973 3 13 10 -19.8 104.9 957 0 0 -- --
1973 3 13 13 -20.0 104.5 958 0 0 -- --
1973 3 13 16 -20.2 104.2 959 0 0 -- --
1973 3 13 19 -20.4 103.8 960 0 0 -- --
1973 3 13 22 -20.4 103.4 962 0 0 -- --
1973 3 14 01 -20.5 103.1 964 0 0 -- --
1973 3 14 04 -20.5 102.7 967 0 0 -- --
1973 3 14 07 -20.6 102.1 970 0 0 -- --
1973 3 14 10 -20.6 101.4 974 0 0 -- --
1973 3 14 13 -20.6 100.8 978 0 0 -- --
1973 3 14 16 -20.6 100.1 982 0 0 -- --
1973 3 14 19 -20.5 99.2 983 0 0 -- --
1973 3 14 22 -20.5 98.4 984 0 0 -- --
1973 3 15 01 -20.3 97.4 985 0 0 -- --
1973 3 15 04 -20.2 96.5 986 0 0 -- --
1973 3 15 07 -20.0 95.6 987 0 0 -- --
1973 3 15 10 -19.8 94.7 989 0 0 -- --
1973 3 15 13 -19.6 93.9 990 0 0 -- --
1973 3 15 16 -19.5 93.2 994 0 0 -- --
1973 3 15 19 -19.5 93.5 993 0 0 -- --
1973 3 15 22 -19.5 92.4 995 0 0 -- --
1973 3 16 01 -19.5 92.1 996 0 0 -- --
1973 3 16 04 -19.5 92.0 997 0 0 -- --
1973 3 16 07 -19.6 91.8 999 0 0 -- --
1973 3 16 10 -19.6 91.6 1000 0 0 -- --
1973 3 16 13 -19.6 91.4 1001 0 0 -- --
1973 3 16 16 -19.7 91.2 1002 0 0 -- --
1973 3 16 19 -19.7 91.1 1003 0 0 -- --
1973 3 16 22 -19.8 90.9 1004 0 0 -- --
1973 3 17 01 -19.9 90.8 1004 0 0 -- --
1973 3 17 04 -19.9 90.7 1005 0 0 -- --
1973 3 17 07 -20.0 90.5 1006 0 0 -- --
1973 3 17 10 -20.0 90.2 1007 0 0 -- --
1973 3 17 13 -20.1 90.1 1009 0 0 -- --
1973 3 17 16 -20.1 89.5 1009 0 0 -- --
1973 3 17 19 -20.1 88.8 1010 0 0 -- --
1973 3 17 22 -20.1 87.8 1011 0 0 -- --
1973 3 18 01 -20.0 86.8 1012 0 0 -- --
< Cyclone 197308 1973 Season Cyclone 197310 >

Help